Terminal Aerodrome Forecast
Issued by NWS

Home | Current Version | Previous Version | Graphics & Text | Print | Product List | Glossary On
Versions: 1 2 3 4 5 6 7 8 9 10 11 12 13 14 15 16 17 18 19 20 21 22 23 24 25 26 27 28 29 30 31 32 33 34 35 36 37 38 39 40 41
000
FTUS43 KLOT 231900 AAA
TAFDPA
TAF AMD
KDPA 231957Z 2320/2418 16012G18KT 5SM -SHRA BR OVC008
     FM240200 18010KT 2SM RA BR OVC005
     FM240600 20008KT 1 1/2SM -RA BR OVC004
     FM241300 24015G22KT 3SM -RA BR SCT007 OVC015
     FM241600 25020G30KT 3SM -RASN SCT007 OVC012=

USA.gov is the U.S. government's official web portal to all federal, state and local government web resources and services.